Gardner, KS

10:17 AM CDT on September 02, 2014 (GMT -0500)
Gardner | Change Station
CLOSE
Current Station
Personal Weather Station
Location: Gardner, KS
Elevation: 1043 ft
Nearby Weather Stations

Elev 1043 ft 38.81 °N, 94.90 °W | Updated 51 seconds ago

Overcast
Overcast
70.5 °F
Feels Like 70.5 °F
N
2.2
Wind Variable Wind from NE

Today
High -- | Low -- °F
--% Chance of Precip.
Yesterday
High -- | Low -- °F
Precip. -- in
6:49 AM 7:48 PM
First Quarter, 52% visible
Pressure 30.01 in
Visibility 4.0 miles
Clouds Overcast 400 ft
Dew Point 68 °F
Humidity 93%
Rainfall 0.00 in
Snow Depth Not available.
UV 1 out of 12
Pollen 9.00 out of 12
Air Quality Not available.
Flu Activity Not available.
SPECI KIXD 021500Z 00000KT 4SM BR OVC004 21/21 A3001 RMK AO2 T02060206

More Conditions Fewer Conditions

Pressure 30.01 in
Visibility 4.0 miles
Clouds Overcast 400 ft
Dew Point 68 °F
Humidity 93%
Rainfall 0.00 in
Snow Depth Not available.
UV 1 out of 12
Pollen 9.00 out of 12
Air Quality Not available.
Flu Activity Not available.
SPECI KIXD 021500Z 00000KT 4SM BR OVC004 21/21 A3001 RMK AO2 T02060206

More Conditions Fewer Conditions

10-Day Weather Forecast

Almanac

Astronomy

Sep. 02, 2014 Rise Set
Actual Time 6:49 AM CDT 7:48 PM CDT
Civil Twilight 6:22 AM CDT 8:15 PM CDT
Nautical Twilight 5:50 AM CDT 8:47 PM CDT
Astronomical Twilight 5:16 AM CDT 9:21 PM CDT
Moon 2:30 PM CDT No Moon Set
Length of Visible Light 13h 53m
Length of Day
12h 58m
Tomorrow will be 2m 25s shorter.
First Quarter, 52% of the Moon is Illuminated
Today
First Quarter
Sep 8
Full
Sep 15
Last Quarter
Sep 24
New
Oct 1
First Quarter

Today's Extremes

State Highs State Lows

Community

WunderPhotos

Upload Photos

1,749,690 photos uploaded!

Nearby

Snow Depth

Station Depth Elevation
No new snow has been reported.

Earthquake Activity

City Distance Mag. Time & Date
No recent earthquake activity has been reported nearby.
Minimum magnitude displayed is 2.5.

Coastal Water Temperatures

Place Temperature
No Stations Reporting

Nearby Weather Stations